Time,TemperatureF,DewpointF,PressureIn,WindDirection,WindDirectionDegrees,WindSpeedMPH,WindSpeedGustMPH,Humidity,HourlyPrecipIn,Conditions,Clouds,dailyrainin,SoftwareType,DateUTC
2013-01-09 00:05:00,25.9,22.8,30.39,SSW,212,0.0,0.0,88,0.00,CLR,,0.00,WeatherDisplay:10.37,2013-01-09 05:05:00,
2013-01-09 00:10:00,25.3,22.3,30.39,SSW,212,0.0,0.0,88,0.00,CLR,,0.00,WeatherDisplay:10.37,2013-01-09 05:10:00,
2013-01-09 00:15:00,26.0,23.0,30.39,SSW,212,0.0,0.0,88,0.00,CLR,,0.00,WeatherDisplay:10.37,2013-01-09 05:15:00,
2013-01-09 00:20:00,25.0,21.9,30.39,SSW,212,0.0,0.0,88,0.00,CLR,,0.00,WeatherDisplay:10.37,2013-01-09 05:20:00,
2013-01-09 00:25:00,25.9,22.8,30.39,SSW,212,0.0,0.0,88,0.00,CLR,,0.00,WeatherDisplay:10.37,2013-01-09 05:25:00,
2013-01-09 00:30:00,25.5,22.4,30.39,SSW,212,0.0,0.0,88,0.00,CLR,,0.00,WeatherDisplay:10.37,2013-01-09 05:30:00,
2013-01-09 00:35:00,24.5,21.5,30.39,SSW,212,0.0,0.0,88,0.00,CLR,,0.00,WeatherDisplay:10.37,2013-01-09 05:35:00,
2013-01-09 00:45:00,24.7,21.7,30.38,SSW,212,0.0,0.0,88,0.00,CLR,,0.00,WeatherDisplay:10.37,2013-01-09 05:45:00,
2013-01-09 00:50:00,24.6,21.6,30.38,SSW,212,0.0,0.0,88,0.00,CLR,,0.00,WeatherDisplay:10.37,2013-01-09 05:50:00,
2013-01-09 00:55:00,24.9,21.9,30.38,SSW,212,0.0,0.0,88,0.00,CLR,,0.00,WeatherDisplay:10.37,2013-01-09 05:55:00,
2013-01-09 01:00:00,25.7,22.6,30.38,SSW,212,0.0,0.0,88,0.00,CLR,,0.00,WeatherDisplay:10.37,2013-01-09 06:00:00,
2013-01-09 01:05:00,26.5,24.2,30.38,SSW,212,0.0,0.0,91,0.00,CLR,,0.00,WeatherDisplay:10.37,2013-01-09 06:05:00,
2013-01-09 01:10:00,25.1,22.9,30.38,SSW,212,0.0,0.0,91,0.00,CLR,,0.00,WeatherDisplay:10.37,2013-01-09 06:10:00,
2013-01-09 01:15:00,25.8,23.5,30.38,SSW,212,0.0,0.0,91,0.00,CLR,,0.00,WeatherDisplay:10.37,2013-01-09 06:15:00,
2013-01-09 01:20:00,26.2,24.0,30.38,SSW,212,0.0,0.0,91,0.00,CLR,,0.00,WeatherDisplay:10.37,2013-01-09 06:20:00,
2013-01-09 01:25:00,25.1,22.8,30.39,SSW,212,0.0,0.0,91,0.00,CLR,,0.00,WeatherDisplay:10.37,2013-01-09 06:25:00,
2013-01-09 01:30:00,25.2,23.0,30.39,SSW,212,0.0,0.0,91,0.00,CLR,,0.00,WeatherDisplay:10.37,2013-01-09 06:30:00,
2013-01-09 01:35:00,25.9,23.6,30.39,SSW,212,0.0,0.0,91,0.00,CLR,,0.00,WeatherDisplay:10.37,2013-01-09 06:35:00,
2013-01-09 01:40:00,25.9,23.6,30.39,SSW,212,0.0,0.0,91,0.00,CLR,,0.00,WeatherDisplay:10.37,2013-01-09 06:40:00,
2013-01-09 01:45:00,24.6,22.4,30.39,SSW,212,0.0,0.0,91,0.00,CLR,,0.00,WeatherDisplay:10.37,2013-01-09 06:45:00,
2013-01-09 01:50:00,24.4,22.2,30.39,SSW,212,0.0,0.0,91,0.00,CLR,,0.00,WeatherDisplay:10.37,2013-01-09 06:50:00,
2013-01-09 01:55:00,25.1,22.8,30.39,SSW,212,0.0,0.0,91,0.00,CLR,,0.00,WeatherDisplay:10.37,2013-01-09 06:55:00,
2013-01-09 02:05:00,24.3,22.0,30.39,SSW,212,0.0,0.0,91,0.00,CLR,,0.00,WeatherDisplay:10.37,2013-01-09 07:05:00,
2013-01-09 02:10:00,25.0,22.7,30.39,SSW,212,0.0,0.0,91,0.00,CLR,,0.00,WeatherDisplay:10.37,2013-01-09 07:10:00,
2013-01-09 02:15:00,23.7,21.5,30.39,SSW,212,0.0,0.0,91,0.00,CLR,,0.00,WeatherDisplay:10.37,2013-01-09 07:15:00,
2013-01-09 02:20:00,24.0,21.8,30.39,SSW,212,0.0,0.0,91,0.00,CLR,,0.00,WeatherDisplay:10.37,2013-01-09 07:20:00,
2013-01-09 02:25:00,24.4,22.1,30.39,SSW,212,0.0,0.0,91,0.00,CLR,,0.00,WeatherDisplay:10.37,2013-01-09 07:25:00,
2013-01-09 02:30:00,24.9,22.7,30.39,SSW,212,0.0,0.0,91,0.00,CLR,,0.00,WeatherDisplay:10.37,2013-01-09 07:30:00,
2013-01-09 02:35:00,25.1,22.8,30.39,SSW,212,0.0,0.0,91,0.00,CLR,,0.00,WeatherDisplay:10.37,2013-01-09 07:35:00,
2013-01-09 02:40:00,25.1,22.8,30.39,SSW,212,0.0,0.0,91,0.00,CLR,,0.00,WeatherDisplay:10.37,2013-01-09 07:40:00,
2013-01-09 02:45:00,24.9,22.6,30.38,SSW,212,0.0,0.0,91,0.00,CLR,,0.00,WeatherDisplay:10.37,2013-01-09 07:45:00,
2013-01-09 02:50:00,23.3,21.1,30.38,SSW,212,0.0,0.0,91,0.00,CLR,,0.00,WeatherDisplay:10.37,2013-01-09 07:50:00,
2013-01-09 02:55:00,22.4,20.2,30.38,SSW,212,0.0,0.0,91,0.00,CLR,,0.00,WeatherDisplay:10.37,2013-01-09 07:55:00,
2013-01-09 03:00:00,24.2,22.0,30.38,SSW,212,0.0,0.0,91,0.00,CLR,,0.00,WeatherDisplay:10.37,2013-01-09 08:00:00,
2013-01-09 03:05:00,24.2,21.9,30.37,SSW,212,0.0,0.0,91,0.00,CLR,,0.00,WeatherDisplay:10.37,2013-01-09 08:05:00,
2013-01-09 03:10:00,24.4,22.2,30.38,SSW,212,0.0,0.0,91,0.00,CLR,,0.00,WeatherDisplay:10.37,2013-01-09 08:10:00,
2013-01-09 03:20:00,22.6,20.4,30.38,SSW,212,0.0,0.0,91,0.00,CLR,,0.00,WeatherDisplay:10.37,2013-01-09 08:20:00,
2013-01-09 03:25:00,23.7,21.4,30.38,SSW,212,0.0,0.0,91,0.00,CLR,,0.00,WeatherDisplay:10.37,2013-01-09 08:25:00,
2013-01-09 03:30:00,24.3,22.0,30.38,SSW,212,0.0,0.0,91,0.00,CLR,,0.00,WeatherDisplay:10.37,2013-01-09 08:30:00,
2013-01-09 03:40:00,22.9,19.0,30.38,North,356,0.0,0.0,85,0.00,CLR,,0.00,WeatherDisplay:10.37,2013-01-09 08:40:00,
2013-01-09 03:45:00,22.9,22.9,30.38,North,356,0.0,0.0,100,0.00,CLR,,0.00,WeatherDisplay:10.37,2013-01-09 08:45:00,
2013-01-09 03:50:00,21.8,21.8,30.38,North,0,0.0,0.0,100,0.00,CLR,,0.00,WeatherDisplay:10.37,2013-01-09 08:50:00,
2013-01-09 03:55:00,21.4,19.5,30.38,North,0,0.0,0.0,92,0.00,CLR,,0.00,WeatherDisplay:10.37,2013-01-09 08:55:00,
2013-01-09 04:00:00,22.9,20.9,30.38,North,0,0.0,0.0,92,0.00,CLR,,0.00,WeatherDisplay:10.37,2013-01-09 09:00:00,
2013-01-09 04:05:00,21.5,19.3,30.38,North,0,0.0,0.0,91,0.00,CLR,,0.00,WeatherDisplay:10.37,2013-01-09 09:05:00,
2013-01-09 04:10:00,21.8,19.6,30.37,North,0,0.0,0.0,91,0.00,CLR,,0.00,WeatherDisplay:10.37,2013-01-09 09:10:00,
2013-01-09 04:15:00,22.2,20.0,30.37,North,0,0.0,0.0,91,0.00,CLR,,0.00,WeatherDisplay:10.37,2013-01-09 09:15:00,
2013-01-09 04:20:00,23.3,21.1,30.37,North,0,0.0,0.0,91,0.00,CLR,,0.00,WeatherDisplay:10.37,2013-01-09 09:20:00,
2013-01-09 04:30:00,23.1,21.2,30.36,North,0,0.0,0.0,92,0.00,CLR,,0.00,WeatherDisplay:10.37,2013-01-09 09:30:00,
2013-01-09 04:35:00,23.4,21.5,30.36,North,0,0.0,0.0,92,0.00,CLR,,0.00,WeatherDisplay:10.37,2013-01-09 09:35:00,
2013-01-09 04:40:00,21.8,19.8,30.38,North,0,0.0,0.0,92,0.00,CLR,,0.00,WeatherDisplay:10.37,2013-01-09 09:40:00,
2013-01-09 04:45:00,21.9,19.9,30.38,North,0,0.0,0.0,92,0.00,CLR,,0.00,WeatherDisplay:10.37,2013-01-09 09:45:00,
2013-01-09 04:50:00,21.0,19.0,30.37,North,0,0.0,0.0,92,0.00,CLR,,0.00,WeatherDisplay:10.37,2013-01-09 09:50:00,
2013-01-09 04:55:00,22.6,20.6,30.37,North,0,0.0,0.0,92,0.00,CLR,,0.00,WeatherDisplay:10.37,2013-01-09 09:55:00,
2013-01-09 05:00:00,21.7,19.8,30.38,North,0,0.0,0.0,92,0.00,CLR,,0.00,WeatherDisplay:10.37,2013-01-09 10:00:00,
2013-01-09 05:05:00,20.4,17.1,30.37,North,0,0.0,0.0,87,0.00,CLR,,0.00,WeatherDisplay:10.37,2013-01-09 10:05:00,
2013-01-09 05:10:00,21.1,17.8,30.37,North,0,0.0,0.0,87,0.00,CLR,,0.00,WeatherDisplay:10.37,2013-01-09 10:10:00,
2013-01-09 05:15:00,22.2,19.0,30.37,North,0,0.0,0.0,87,0.00,CLR,,0.00,WeatherDisplay:10.37,2013-01-09 10:15:00,
2013-01-09 05:20:00,20.6,17.4,30.38,North,0,0.0,0.0,87,0.00,CLR,,0.00,WeatherDisplay:10.37,2013-01-09 10:20:00,
2013-01-09 05:25:00,19.7,16.4,30.38,North,0,0.0,0.0,87,0.00,CLR,,0.00,WeatherDisplay:10.37,2013-01-09 10:25:00,
2013-01-09 05:30:00,19.4,16.1,30.38,North,0,0.0,0.0,87,0.00,CLR,,0.00,WeatherDisplay:10.37,2013-01-09 10:30:00,
2013-01-09 05:35:00,19.2,15.9,30.38,North,0,0.0,0.0,87,0.00,CLR,,0.00,WeatherDisplay:10.37,2013-01-09 10:35:00,
2013-01-09 05:40:00,20.0,16.7,30.38,North,0,0.0,0.0,87,0.00,CLR,,0.00,WeatherDisplay:10.37,2013-01-09 10:40:00,
2013-01-09 05:45:00,21.5,18.2,30.38,North,0,0.0,0.0,87,0.00,CLR,,0.00,WeatherDisplay:10.37,2013-01-09 10:45:00,
2013-01-09 05:50:00,19.9,16.7,30.38,North,0,0.0,0.0,87,0.00,CLR,,0.00,WeatherDisplay:10.37,2013-01-09 10:50:00,
2013-01-09 05:55:00,21.4,18.1,30.39,North,0,0.0,0.0,87,0.00,CLR,,0.00,WeatherDisplay:10.37,2013-01-09 10:55:00,
2013-01-09 06:00:00,20.7,17.4,30.39,North,0,0.0,0.0,87,0.00,CLR,,0.00,WeatherDisplay:10.37,2013-01-09 11:00:00,
2013-01-09 06:05:00,21.7,18.4,30.39,North,0,0.0,0.0,87,0.00,CLR,,0.00,WeatherDisplay:10.37,2013-01-09 11:05:00,
2013-01-09 06:10:00,21.5,18.3,30.39,North,0,0.0,0.0,87,0.00,CLR,,0.00,WeatherDisplay:10.37,2013-01-09 11:10:00,
2013-01-09 06:15:00,19.4,16.1,30.39,North,0,0.0,0.0,87,0.00,CLR,,0.00,WeatherDisplay:10.37,2013-01-09 11:15:00,
2013-01-09 06:20:00,19.8,16.6,30.39,North,0,0.0,0.0,87,0.00,CLR,,0.00,WeatherDisplay:10.37,2013-01-09 11:20:00,
2013-01-09 06:25:00,20.5,17.3,30.39,North,0,0.0,0.0,87,0.00,CLR,,0.00,WeatherDisplay:10.37,2013-01-09 11:25:00,
2013-01-09 06:30:00,20.3,17.1,30.39,North,0,0.0,0.0,87,0.00,CLR,,0.00,WeatherDisplay:10.37,2013-01-09 11:30:00,
2013-01-09 06:35:00,20.5,17.3,30.39,North,0,0.0,0.0,87,0.00,CLR,,0.00,WeatherDisplay:10.37,2013-01-09 11:35:00,
2013-01-09 06:40:00,20.8,17.5,30.40,North,0,0.0,0.0,87,0.00,CLR,,0.00,WeatherDisplay:10.37,2013-01-09 11:40:00,
2013-01-09 06:45:00,19.4,16.2,30.40,North,0,0.0,0.0,87,0.00,CLR,,0.00,WeatherDisplay:10.37,2013-01-09 11:45:00,
2013-01-09 06:50:00,19.4,16.2,30.40,North,0,0.0,0.0,87,0.00,CLR,,0.00,WeatherDisplay:10.37,2013-01-09 11:50:00,
2013-01-09 07:00:00,19.5,16.3,30.41,North,0,0.0,0.0,87,0.00,CLR,,0.00,WeatherDisplay:10.37,2013-01-09 12:00:00,
2013-01-09 07:05:00,20.7,19.7,30.41,North,0,0.0,0.0,96,0.00,CLR,,0.00,WeatherDisplay:10.37,2013-01-09 12:05:00,
2013-01-09 07:15:00,20.8,19.8,30.42,North,0,0.0,0.0,96,0.00,CLR,,0.00,WeatherDisplay:10.37,2013-01-09 12:15:00,
2013-01-09 07:20:00,19.4,18.5,30.42,North,0,0.0,0.0,96,0.00,CLR,,0.00,WeatherDisplay:10.37,2013-01-09 12:20:00,
2013-01-09 07:25:00,19.4,18.4,30.42,North,0,0.0,0.0,96,0.00,CLR,,0.00,WeatherDisplay:10.37,2013-01-09 12:25:00,
2013-01-09 07:30:00,20.8,19.8,30.42,North,0,0.0,0.0,96,0.00,CLR,,0.00,WeatherDisplay:10.37,2013-01-09 12:30:00,
2013-01-09 07:35:00,20.1,19.2,30.42,North,0,0.0,0.0,96,0.00,CLR,,0.00,WeatherDisplay:10.37,2013-01-09 12:35:00,
2013-01-09 07:40:00,19.0,18.0,30.41,North,0,0.0,0.0,96,0.00,CLR,,0.00,WeatherDisplay:10.37,2013-01-09 12:40:00,
2013-01-09 07:45:00,20.5,19.5,30.41,North,0,0.0,0.0,96,0.00,CLR,,0.00,WeatherDisplay:10.37,2013-01-09 12:45:00,
2013-01-09 07:50:00,19.1,18.1,30.40,North,0,0.0,0.0,96,0.00,CLR,,0.00,WeatherDisplay:10.37,2013-01-09 12:50:00,
2013-01-09 07:55:00,18.5,17.6,30.40,North,0,0.0,0.0,96,0.00,CLR,,0.00,WeatherDisplay:10.37,2013-01-09 12:55:00,
2013-01-09 08:00:00,19.9,19.0,30.40,North,0,0.0,0.0,96,0.00,CLR,,0.00,WeatherDisplay:10.37,2013-01-09 13:00:00,
2013-01-09 08:10:00,21.2,19.0,30.40,North,0,0.0,0.0,91,0.00,CLR,,0.00,WeatherDisplay:10.37,2013-01-09 13:10:00,
2013-01-09 08:15:00,21.0,18.8,30.41,North,0,0.0,0.0,91,0.00,CLR,,0.00,WeatherDisplay:10.37,2013-01-09 13:15:00,
2013-01-09 08:20:00,21.0,18.7,30.41,North,0,0.0,0.0,91,0.00,CLR,,0.00,WeatherDisplay:10.37,2013-01-09 13:20:00,
2013-01-09 08:25:00,21.7,19.4,30.41,North,0,0.0,0.0,91,0.00,CLR,,0.00,WeatherDisplay:10.37,2013-01-09 13:25:00,
2013-01-09 08:30:00,22.1,19.9,30.41,North,0,0.0,0.0,91,0.00,CLR,,0.00,WeatherDisplay:10.37,2013-01-09 13:30:00,
2013-01-09 08:35:00,22.6,20.3,30.41,North,0,0.0,0.0,91,0.00,CLR,,0.00,WeatherDisplay:10.37,2013-01-09 13:35:00,
2013-01-09 08:40:00,21.6,19.4,30.41,North,0,0.0,0.0,91,0.00,CLR,,0.00,WeatherDisplay:10.37,2013-01-09 13:40:00,
2013-01-09 08:45:00,23.1,20.9,30.41,North,0,0.0,0.0,91,0.00,CLR,,0.00,WeatherDisplay:10.37,2013-01-09 13:45:00,
2013-01-09 08:50:00,23.9,21.7,30.41,North,0,0.0,0.0,91,0.00,CLR,,0.00,WeatherDisplay:10.37,2013-01-09 13:50:00,
2013-01-09 08:55:00,23.4,21.2,30.41,North,0,0.0,0.0,91,0.00,CLR,,0.00,WeatherDisplay:10.37,2013-01-09 13:55:00,
2013-01-09 09:00:00,23.3,21.1,30.41,North,0,0.0,0.0,91,0.00,CLR,,0.00,WeatherDisplay:10.37,2013-01-09 14:00:00,
2013-01-09 09:05:00,24.1,21.9,30.41,North,0,0.0,0.0,91,0.00,CLR,,0.00,WeatherDisplay:10.37,2013-01-09 14:05:00,
2013-01-09 09:10:00,24.3,22.0,30.40,North,0,0.0,0.0,91,0.00,CLR,,0.00,WeatherDisplay:10.37,2013-01-09 14:10:00,
2013-01-09 09:15:00,23.8,21.6,30.40,North,0,0.0,0.0,91,0.00,CLR,,0.00,WeatherDisplay:10.37,2013-01-09 14:15:00,
2013-01-09 09:20:00,24.7,22.5,30.39,North,0,0.0,0.0,91,0.00,CLR,,0.00,WeatherDisplay:10.37,2013-01-09 14:20:00,
2013-01-09 09:25:00,24.7,22.5,30.39,North,0,0.0,0.0,91,0.00,CLR,,0.00,WeatherDisplay:10.37,2013-01-09 14:25:00,
2013-01-09 09:30:00,24.9,22.6,30.39,North,0,0.0,0.0,91,0.00,CLR,,0.00,WeatherDisplay:10.37,2013-01-09 14:30:00,
2013-01-09 09:35:00,25.0,22.7,30.39,North,0,0.0,0.0,91,0.00,CLR,,0.00,WeatherDisplay:10.37,2013-01-09 14:35:00,
2013-01-09 09:40:00,25.0,22.7,30.39,North,0,0.0,0.0,91,0.00,CLR,,0.00,WeatherDisplay:10.37,2013-01-09 14:40:00,
2013-01-09 09:45:00,25.6,23.3,30.39,North,0,0.0,0.0,91,0.00,CLR,,0.00,WeatherDisplay:10.37,2013-01-09 14:45:00,
2013-01-09 09:50:00,25.8,23.5,30.38,North,0,0.0,0.0,91,0.00,CLR,,0.00,WeatherDisplay:10.37,2013-01-09 14:50:00,
2013-01-09 09:55:00,26.6,24.3,30.38,North,0,0.0,0.0,91,0.00,CLR,,0.00,WeatherDisplay:10.37,2013-01-09 14:55:00,
2013-01-09 10:00:00,26.7,24.4,30.38,North,0,0.0,0.0,91,0.00,CLR,,0.00,WeatherDisplay:10.37,2013-01-09 15:00:00,
2013-01-09 10:05:00,26.7,25.7,30.38,North,0,0.0,0.0,96,0.00,CLR,,0.00,WeatherDisplay:10.37,2013-01-09 15:05:00,
2013-01-09 10:10:00,26.9,25.9,30.37,North,0,0.0,0.0,96,0.00,CLR,,0.00,WeatherDisplay:10.37,2013-01-09 15:10:00,
2013-01-09 10:15:00,28.1,27.1,30.38,North,0,0.0,0.0,96,0.00,CLR,,0.00,WeatherDisplay:10.37,2013-01-09 15:15:00,
2013-01-09 10:20:00,27.8,26.8,30.37,North,0,0.0,0.0,96,0.00,CLR,,0.00,WeatherDisplay:10.37,2013-01-09 15:20:00,
2013-01-09 10:25:00,28.2,27.2,30.38,North,0,0.0,0.0,96,0.00,CLR,,0.00,WeatherDisplay:10.37,2013-01-09 15:25:00,
2013-01-09 10:30:00,28.7,27.7,30.38,North,0,0.0,0.0,96,0.00,CLR,,0.00,WeatherDisplay:10.37,2013-01-09 15:30:00,
2013-01-09 10:35:00,28.9,27.9,30.38,North,0,0.0,0.0,96,0.00,CLR,,0.00,WeatherDisplay:10.37,2013-01-09 15:35:00,
2013-01-09 10:40:00,28.6,27.6,30.38,North,0,0.0,0.0,96,0.00,CLR,,0.00,WeatherDisplay:10.37,2013-01-09 15:40:00,
2013-01-09 10:45:00,28.4,27.4,30.37,North,0,0.0,0.0,96,0.00,CLR,,0.00,WeatherDisplay:10.37,2013-01-09 15:45:00,
2013-01-09 10:50:00,28.4,27.4,30.36,North,0,0.0,0.0,96,0.00,CLR,,0.00,WeatherDisplay:10.37,2013-01-09 15:50:00,
2013-01-09 10:55:00,29.1,28.1,30.35,North,0,0.0,0.0,96,0.00,CLR,,0.00,WeatherDisplay:10.37,2013-01-09 15:55:00,
2013-01-09 11:00:00,27.7,26.7,30.34,North,0,0.0,0.0,96,0.00,CLR,,0.00,WeatherDisplay:10.37,2013-01-09 16:00:00,
2013-01-09 11:05:00,28.7,25.3,30.34,North,0,0.0,0.0,87,0.00,CLR,,0.00,WeatherDisplay:10.37,2013-01-09 16:05:00,
2013-01-09 11:10:00,29.9,26.5,30.33,North,0,0.0,0.0,87,0.00,CLR,,0.00,WeatherDisplay:10.37,2013-01-09 16:10:00,
2013-01-09 11:15:00,30.2,26.8,30.33,North,0,0.0,0.0,87,0.00,CLR,,0.00,WeatherDisplay:10.37,2013-01-09 16:15:00,
2013-01-09 11:20:00,31.1,27.7,30.31,North,0,0.0,0.0,87,0.00,CLR,,0.00,WeatherDisplay:10.37,2013-01-09 16:20:00,
2013-01-09 11:25:00,31.2,27.8,30.30,North,0,0.0,0.0,87,0.00,CLR,,0.00,WeatherDisplay:10.37,2013-01-09 16:25:00,
2013-01-09 11:30:00,31.2,27.7,30.30,North,0,0.0,0.0,87,0.00,CLR,,0.00,WeatherDisplay:10.37,2013-01-09 16:30:00,
2013-01-09 11:35:00,31.0,27.6,30.30,North,0,0.0,0.0,87,0.00,CLR,,0.00,WeatherDisplay:10.37,2013-01-09 16:35:00,
2013-01-09 11:40:00,31.5,28.1,30.29,North,0,0.0,0.0,87,0.00,CLR,,0.00,WeatherDisplay:10.37,2013-01-09 16:40:00,
2013-01-09 11:45:00,31.3,27.9,30.27,North,0,0.0,0.0,87,0.00,CLR,,0.00,WeatherDisplay:10.37,2013-01-09 16:45:00,
2013-01-09 11:50:00,32.9,29.4,30.27,North,0,0.0,0.0,87,0.00,CLR,,0.00,WeatherDisplay:10.37,2013-01-09 16:50:00,
2013-01-09 11:55:00,33.5,30.1,30.27,North,0,0.0,0.0,87,0.00,CLR,,0.00,WeatherDisplay:10.37,2013-01-09 16:55:00,
2013-01-09 12:00:00,34.0,30.6,30.27,North,0,0.0,0.0,87,0.00,CLR,,0.00,WeatherDisplay:10.37,2013-01-09 17:00:00,
2013-01-09 12:05:00,33.8,27.3,30.26,North,0,0.0,0.0,77,0.00,CLR,,0.00,WeatherDisplay:10.37,2013-01-09 17:05:00,
2013-01-09 12:10:00,32.7,26.2,30.25,North,0,0.0,0.0,77,0.00,CLR,,0.00,WeatherDisplay:10.37,2013-01-09 17:10:00,
2013-01-09 12:15:00,33.2,26.8,30.24,North,0,0.0,0.0,77,0.00,CLR,,0.00,WeatherDisplay:10.37,2013-01-09 17:15:00,
2013-01-09 12:20:00,34.3,27.8,30.23,North,0,0.0,0.0,77,0.00,CLR,,0.00,WeatherDisplay:10.37,2013-01-09 17:20:00,
2013-01-09 12:25:00,33.5,27.1,30.22,North,0,0.0,0.0,77,0.00,CLR,,0.00,WeatherDisplay:10.37,2013-01-09 17:25:00,
2013-01-09 12:30:00,34.5,28.0,30.22,North,0,0.0,0.0,77,0.00,CLR,,0.00,WeatherDisplay:10.37,2013-01-09 17:30:00,
2013-01-09 12:35:00,34.6,28.2,30.21,North,0,0.0,0.0,77,0.00,CLR,,0.00,WeatherDisplay:10.37,2013-01-09 17:35:00,
2013-01-09 12:40:00,34.4,27.9,30.21,North,0,0.0,0.0,77,0.00,CLR,,0.00,WeatherDisplay:10.37,2013-01-09 17:40:00,
2013-01-09 12:50:00,34.0,27.5,30.21,North,0,0.0,0.0,77,0.00,CLR,,0.00,WeatherDisplay:10.37,2013-01-09 17:50:00,
2013-01-09 12:55:00,33.6,27.1,30.21,North,0,0.0,0.0,77,0.00,CLR,,0.00,WeatherDisplay:10.37,2013-01-09 17:55:00,
2013-01-09 13:00:00,34.0,27.5,30.21,North,0,0.0,0.0,77,0.00,CLR,,0.00,WeatherDisplay:10.37,2013-01-09 18:00:00,
2013-01-09 13:05:00,34.0,24.5,30.21,North,0,0.0,0.0,68,0.00,CLR,,0.00,WeatherDisplay:10.37,2013-01-09 18:05:00,
2013-01-09 13:10:00,34.0,24.6,30.20,North,0,0.0,0.0,68,0.00,CLR,,0.00,WeatherDisplay:10.37,2013-01-09 18:10:00,
2013-01-09 13:15:00,34.2,24.8,30.20,North,0,0.0,0.0,68,0.00,CLR,,0.00,WeatherDisplay:10.37,2013-01-09 18:15:00,
2013-01-09 13:20:00,33.3,23.9,30.20,North,0,0.0,0.0,68,0.00,CLR,,0.00,WeatherDisplay:10.37,2013-01-09 18:20:00,
2013-01-09 13:25:00,33.4,23.9,30.20,North,0,0.0,0.0,68,0.00,CLR,,0.00,WeatherDisplay:10.37,2013-01-09 18:25:00,
2013-01-09 13:30:00,33.5,24.0,30.19,North,0,0.0,0.0,68,0.00,CLR,,0.00,WeatherDisplay:10.37,2013-01-09 18:30:00,
2013-01-09 13:35:00,33.9,24.4,30.19,North,0,0.0,0.0,68,0.00,CLR,,0.00,WeatherDisplay:10.37,2013-01-09 18:35:00,
2013-01-09 13:40:00,33.6,24.2,30.18,North,0,0.0,0.0,68,0.00,CLR,,0.00,WeatherDisplay:10.37,2013-01-09 18:40:00,
2013-01-09 13:45:00,32.7,23.3,30.17,North,0,0.0,0.0,68,0.00,CLR,,0.00,WeatherDisplay:10.37,2013-01-09 18:45:00,
2013-01-09 13:50:00,33.0,23.6,30.17,North,0,0.0,0.0,68,0.00,CLR,,0.00,WeatherDisplay:10.37,2013-01-09 18:50:00,
2013-01-09 14:00:00,32.3,22.9,30.15,North,0,0.0,0.0,68,0.00,CLR,,0.00,WeatherDisplay:10.37,2013-01-09 19:00:00,
2013-01-09 14:10:00,31.9,23.5,30.16,North,0,0.0,0.0,71,0.00,CLR,,0.00,WeatherDisplay:10.37,2013-01-09 19:10:00,
2013-01-09 14:15:00,31.8,23.5,30.15,North,0,0.0,0.0,71,0.00,CLR,,0.00,WeatherDisplay:10.37,2013-01-09 19:15:00,
2013-01-09 14:25:00,32.2,23.9,30.14,North,0,0.0,0.0,71,0.00,CLR,,0.00,WeatherDisplay:10.37,2013-01-09 19:25:00,
2013-01-09 14:30:00,32.0,23.6,30.13,North,0,0.0,0.0,71,0.00,CLR,,0.00,WeatherDisplay:10.37,2013-01-09 19:30:00,
2013-01-09 14:35:00,32.0,23.6,30.12,North,0,0.0,0.0,71,0.00,CLR,,0.00,WeatherDisplay:10.37,2013-01-09 19:35:00,
2013-01-09 14:40:00,32.2,23.9,30.12,North,0,0.0,0.0,71,0.00,CLR,,0.00,WeatherDisplay:10.37,2013-01-09 19:40:00,
2013-01-09 14:45:00,32.8,24.4,30.12,North,0,0.0,0.0,71,0.00,CLR,,0.00,WeatherDisplay:10.37,2013-01-09 19:45:00,
2013-01-09 14:50:00,32.6,24.3,30.12,North,0,0.0,0.0,71,0.00,CLR,,0.00,WeatherDisplay:10.37,2013-01-09 19:50:00,
2013-01-09 14:55:00,31.8,23.5,30.12,North,0,0.0,0.0,71,0.00,CLR,,0.00,WeatherDisplay:10.37,2013-01-09 19:55:00,
2013-01-09 15:00:00,32.2,23.9,30.11,North,0,0.0,0.0,71,0.00,CLR,,0.00,WeatherDisplay:10.37,2013-01-09 20:00:00,
2013-01-09 15:10:00,32.5,23.1,30.10,North,0,0.0,0.0,68,0.00,OVC,,0.00,WeatherDisplay:10.37,2013-01-09 20:10:00,
2013-01-09 15:15:00,32.5,23.1,30.09,North,0,0.0,0.0,68,0.00,OVC,,0.00,WeatherDisplay:10.37,2013-01-09 20:15:00,
2013-01-09 15:20:00,32.1,22.7,30.09,North,0,0.0,0.0,68,0.00,OVC,,0.00,WeatherDisplay:10.37,2013-01-09 20:20:00,
2013-01-09 15:25:00,32.3,22.9,30.08,North,0,0.0,0.0,68,0.00,OVC,,0.00,WeatherDisplay:10.37,2013-01-09 20:25:00,
2013-01-09 15:30:00,31.9,22.5,30.07,North,0,0.0,0.0,68,0.00,OVC,,0.00,WeatherDisplay:10.37,2013-01-09 20:30:00,
2013-01-09 15:35:00,31.8,22.5,30.07,North,0,0.0,0.0,68,0.00,OVC,,0.00,WeatherDisplay:10.37,2013-01-09 20:35:00,
2013-01-09 15:45:00,31.6,22.3,30.05,North,0,0.0,0.0,68,0.00,OVC,,0.00,WeatherDisplay:10.37,2013-01-09 20:45:00,
2013-01-09 15:50:00,31.5,22.2,30.07,North,0,0.0,0.0,68,0.00,OVC,,0.00,WeatherDisplay:10.37,2013-01-09 20:50:00,
2013-01-09 15:55:00,31.5,22.1,30.07,North,0,0.0,0.0,68,0.00,OVC,,0.00,WeatherDisplay:10.37,2013-01-09 20:55:00,
2013-01-09 16:00:00,30.9,21.6,30.07,North,0,0.0,0.0,68,0.00,OVC,,0.00,WeatherDisplay:10.37,2013-01-09 21:00:00,
2013-01-09 16:05:00,31.4,21.3,30.06,North,0,0.0,0.0,66,0.00,OVC,,0.00,WeatherDisplay:10.37,2013-01-09 21:05:00,
2013-01-09 16:10:00,31.9,21.8,30.06,North,0,0.0,0.0,66,0.00,OVC,,0.00,WeatherDisplay:10.37,2013-01-09 21:10:00,
2013-01-09 16:15:00,31.8,21.8,30.06,North,0,0.0,0.0,66,0.00,OVC,,0.00,WeatherDisplay:10.37,2013-01-09 21:15:00,
2013-01-09 16:20:00,31.0,21.0,30.06,North,0,0.0,0.0,66,0.00,OVC,,0.00,WeatherDisplay:10.37,2013-01-09 21:20:00,
2013-01-09 16:25:00,31.5,21.4,30.06,North,0,0.0,0.0,66,0.00,OVC,,0.00,WeatherDisplay:10.37,2013-01-09 21:25:00,
2013-01-09 16:30:00,31.2,21.1,30.04,North,0,0.0,0.0,66,0.00,OVC,,0.00,WeatherDisplay:10.37,2013-01-09 21:30:00,
2013-01-09 16:35:00,30.8,20.8,30.04,North,0,0.0,0.0,66,0.00,OVC,,0.00,WeatherDisplay:10.37,2013-01-09 21:35:00,
2013-01-09 16:40:00,30.9,20.9,30.03,North,0,0.0,0.0,66,0.00,OVC,,0.00,WeatherDisplay:10.37,2013-01-09 21:40:00,
2013-01-09 16:45:00,31.2,21.1,30.02,North,0,0.0,0.0,66,0.00,OVC,,0.00,WeatherDisplay:10.37,2013-01-09 21:45:00,
2013-01-09 16:50:00,31.5,21.5,30.01,North,0,0.0,0.0,66,0.00,OVC,,0.00,WeatherDisplay:10.37,2013-01-09 21:50:00,
2013-01-09 16:55:00,31.5,21.4,30.01,North,0,0.0,0.0,66,0.00,OVC,,0.00,WeatherDisplay:10.37,2013-01-09 21:55:00,
2013-01-09 17:00:00,31.1,21.1,30.01,North,0,0.0,0.0,66,0.00,OVC,,0.00,WeatherDisplay:10.37,2013-01-09 22:00:00,
2013-01-09 17:05:00,31.5,21.4,30.01,North,0,0.0,0.0,66,0.00,OVC,,0.00,WeatherDisplay:10.37,2013-01-09 22:05:00,
2013-01-09 17:10:00,31.5,21.4,30.00,North,0,0.0,0.0,66,0.00,OVC,,0.00,WeatherDisplay:10.37,2013-01-09 22:10:00,
2013-01-09 17:15:00,31.7,21.6,29.99,North,0,0.0,0.0,66,0.00,OVC,,0.00,WeatherDisplay:10.37,2013-01-09 22:15:00,
2013-01-09 17:20:00,31.8,21.7,29.99,North,0,0.0,0.0,66,0.00,OVC,,0.00,WeatherDisplay:10.37,2013-01-09 22:20:00,
2013-01-09 17:25:00,31.8,21.7,29.99,North,0,0.0,0.0,66,0.00,OVC,,0.00,WeatherDisplay:10.37,2013-01-09 22:25:00,
2013-01-09 17:30:00,31.7,21.6,29.99,North,0,0.0,0.0,66,0.00,OVC,,0.00,WeatherDisplay:10.37,2013-01-09 22:30:00,
2013-01-09 17:35:00,32.0,22.0,30.00,North,0,0.0,0.0,66,0.00,OVC,,0.00,WeatherDisplay:10.37,2013-01-09 22:35:00,
2013-01-09 17:40:00,32.1,22.0,30.00,North,0,0.0,0.0,66,0.00,OVC,,0.00,WeatherDisplay:10.37,2013-01-09 22:40:00,
2013-01-09 17:45:00,32.2,22.1,30.00,North,0,0.0,0.0,66,0.00,OVC,,0.00,WeatherDisplay:10.37,2013-01-09 22:45:00,
2013-01-09 17:50:00,32.1,22.0,29.99,North,0,0.0,0.0,66,0.00,OVC,,0.00,WeatherDisplay:10.37,2013-01-09 22:50:00,
2013-01-09 17:55:00,31.8,21.8,29.99,North,0,0.0,0.0,66,0.00,OVC,,0.00,WeatherDisplay:10.37,2013-01-09 22:55:00,
2013-01-09 18:00:00,31.9,21.8,29.99,North,0,0.0,0.0,66,0.00,OVC,,0.00,WeatherDisplay:10.37,2013-01-09 23:00:00,
2013-01-09 18:05:00,31.7,23.7,29.99,North,0,0.0,0.0,72,0.00,BKN,,0.00,WeatherDisplay:10.37,2013-01-09 23:05:00,
2013-01-09 18:10:00,31.7,23.7,29.99,North,0,0.0,0.0,72,0.00,BKN,,0.00,WeatherDisplay:10.37,2013-01-09 23:10:00,
2013-01-09 18:15:00,31.6,23.6,30.00,North,0,0.0,0.0,72,0.00,BKN,,0.00,WeatherDisplay:10.37,2013-01-09 23:15:00,
2013-01-09 18:20:00,31.4,23.4,29.99,North,0,0.0,0.0,72,0.00,BKN,,0.00,WeatherDisplay:10.37,2013-01-09 23:20:00,
2013-01-09 18:25:00,31.5,23.5,29.99,North,0,0.0,0.0,72,0.00,BKN,,0.00,WeatherDisplay:10.37,2013-01-09 23:25:00,
2013-01-09 18:30:00,31.5,23.5,29.99,North,0,0.0,0.0,72,0.00,BKN,,0.00,WeatherDisplay:10.37,2013-01-09 23:30:00,
2013-01-09 18:35:00,31.6,23.6,29.99,North,0,0.0,0.0,72,0.00,BKN,,0.00,WeatherDisplay:10.37,2013-01-09 23:35:00,
2013-01-09 18:40:00,31.6,23.6,29.99,North,0,0.0,0.0,72,0.00,BKN,,0.00,WeatherDisplay:10.37,2013-01-09 23:40:00,
2013-01-09 18:45:00,31.5,23.5,29.99,North,349,0.0,8.0,72,0.00,BKN,,0.00,WeatherDisplay:10.37,2013-01-09 23:45:00,
2013-01-09 18:50:00,31.9,23.9,29.99,SW,229,0.0,8.0,72,0.00,BKN,,0.00,WeatherDisplay:10.37,2013-01-09 23:50:00,
2013-01-09 19:00:00,31.8,23.8,29.98,South,177,0.0,6.0,72,0.00,BKN,,0.00,WeatherDisplay:10.37,2013-01-10 00:00:00,
2013-01-09 19:05:00,32.3,27.1,29.98,SSE,150,0.0,0.0,81,0.00,FEW,,0.00,WeatherDisplay:10.37,2013-01-10 00:05:00,
2013-01-09 19:10:00,31.8,26.6,29.99,SSW,205,2.0,7.0,81,0.00,FEW,,0.00,WeatherDisplay:10.37,2013-01-10 00:10:00,
2013-01-09 19:15:00,31.8,26.6,29.99,WSW,252,1.0,6.0,81,0.00,FEW,,0.00,WeatherDisplay:10.37,2013-01-10 00:15:00,
2013-01-09 19:20:00,32.0,26.8,29.99,West,264,0.0,5.0,81,0.00,FEW,,0.00,WeatherDisplay:10.37,2013-01-10 00:20:00,
2013-01-09 19:25:00,32.1,26.9,29.99,West,275,0.0,5.0,81,0.00,FEW,,0.00,WeatherDisplay:10.37,2013-01-10 00:25:00,
2013-01-09 19:30:00,32.0,26.8,29.99,West,274,0.0,0.0,81,0.00,FEW,,0.00,WeatherDisplay:10.37,2013-01-10 00:30:00,
2013-01-09 19:35:00,32.0,26.8,29.99,West,272,0.0,0.0,81,0.00,FEW,,0.00,WeatherDisplay:10.37,2013-01-10 00:35:00,
2013-01-09 19:40:00,32.2,27.1,29.99,West,272,0.0,0.0,81,0.00,FEW,,0.00,WeatherDisplay:10.37,2013-01-10 00:40:00,
2013-01-09 19:45:00,31.7,26.5,29.99,West,272,0.0,0.0,81,0.00,FEW,,0.00,WeatherDisplay:10.37,2013-01-10 00:45:00,
2013-01-09 19:50:00,31.5,26.3,29.99,West,272,0.0,0.0,81,0.00,FEW,,0.00,WeatherDisplay:10.37,2013-01-10 00:50:00,
2013-01-09 19:55:00,31.3,26.1,29.98,West,272,0.0,0.0,81,0.00,FEW,,0.00,WeatherDisplay:10.37,2013-01-10 00:55:00,
2013-01-09 20:00:00,31.1,26.0,29.98,West,272,0.0,0.0,81,0.00,FEW,,0.00,WeatherDisplay:10.37,2013-01-10 01:00:00,
2013-01-09 20:05:00,30.5,28.4,29.98,West,272,0.0,0.0,92,0.00,CLR,,0.00,WeatherDisplay:10.37,2013-01-10 01:05:00,
2013-01-09 20:10:00,30.5,28.4,29.98,West,272,0.0,0.0,92,0.00,CLR,,0.00,WeatherDisplay:10.37,2013-01-10 01:10:00,
2013-01-09 20:15:00,30.8,28.7,29.98,West,272,0.0,0.0,92,0.00,CLR,,0.00,WeatherDisplay:10.37,2013-01-10 01:15:00,
2013-01-09 20:20:00,30.5,28.4,29.98,West,272,0.0,6.0,92,0.00,CLR,,0.00,WeatherDisplay:10.37,2013-01-10 01:20:00,
2013-01-09 20:25:00,30.9,28.9,29.98,West,274,0.0,6.0,92,0.00,CLR,,0.00,WeatherDisplay:10.37,2013-01-10 01:25:00,
2013-01-09 20:30:00,31.3,29.3,29.98,West,279,0.0,6.0,92,0.00,CLR,,0.00,WeatherDisplay:10.37,2013-01-10 01:30:00,
2013-01-09 20:35:00,31.2,29.2,29.98,West,263,1.0,9.0,92,0.00,CLR,,0.00,WeatherDisplay:10.37,2013-01-10 01:35:00,
2013-01-09 20:40:00,31.7,29.6,29.98,WNW,295,2.0,7.0,92,0.00,CLR,,0.00,WeatherDisplay:10.37,2013-01-10 01:40:00,
2013-01-09 20:45:00,33.0,30.9,29.98,NW,305,0.0,8.0,92,0.00,CLR,,0.00,WeatherDisplay:10.37,2013-01-10 01:45:00,
2013-01-09 20:50:00,32.5,30.4,29.98,WNW,295,1.0,7.0,92,0.00,CLR,,0.00,WeatherDisplay:10.37,2013-01-10 01:50:00,
2013-01-09 20:55:00,32.5,30.4,29.98,WNW,292,2.0,10.0,92,0.00,CLR,,0.00,WeatherDisplay:10.37,2013-01-10 01:55:00,
2013-01-09 21:00:00,32.9,30.8,29.97,WNW,283,0.0,10.0,92,0.00,CLR,,0.00,WeatherDisplay:10.37,2013-01-10 02:00:00,
2013-01-09 21:05:00,33.2,32.1,29.97,WNW,284,0.0,9.0,96,0.00,CLR,,0.00,WeatherDisplay:10.37,2013-01-10 02:05:00,
2013-01-09 21:10:00,34.5,33.5,29.97,WNW,294,1.0,5.0,96,0.00,CLR,,0.00,WeatherDisplay:10.37,2013-01-10 02:10:00,
2013-01-09 21:15:00,33.7,32.6,29.98,WNW,290,0.0,0.0,96,0.00,CLR,,0.00,WeatherDisplay:10.37,2013-01-10 02:15:00,
2013-01-09 21:20:00,33.9,32.9,29.98,WNW,284,1.0,9.0,96,0.00,CLR,,0.00,WeatherDisplay:10.37,2013-01-10 02:20:00,
2013-01-09 21:25:00,34.0,33.0,29.98,WNW,286,0.0,6.0,96,0.00,CLR,,0.00,WeatherDisplay:10.37,2013-01-10 02:25:00,
2013-01-09 21:30:00,33.4,32.4,29.98,WNW,298,0.0,3.0,96,0.00,CLR,,0.00,WeatherDisplay:10.37,2013-01-10 02:30:00,
2013-01-09 21:35:00,34.2,33.1,29.99,NW,305,0.0,0.0,96,0.00,CLR,,0.00,WeatherDisplay:10.37,2013-01-10 02:35:00,
2013-01-09 21:40:00,34.2,33.2,29.99,NW,314,1.0,5.0,96,0.00,CLR,,0.00,WeatherDisplay:10.37,2013-01-10 02:40:00,
2013-01-09 21:45:00,34.4,33.3,29.99,NW,322,0.0,6.0,96,0.00,CLR,,0.00,WeatherDisplay:10.37,2013-01-10 02:45:00,
2013-01-09 21:50:00,34.1,33.1,29.99,NW,322,0.0,0.0,96,0.00,CLR,,0.00,WeatherDisplay:10.37,2013-01-10 02:50:00,
2013-01-09 21:55:00,33.9,32.9,30.00,NW,320,0.0,0.0,96,0.00,CLR,,0.00,WeatherDisplay:10.37,2013-01-10 02:55:00,
2013-01-09 22:05:00,34.3,32.2,30.00,NW,320,0.0,0.0,92,0.00,OVC,,0.00,WeatherDisplay:10.37,2013-01-10 03:05:00,
2013-01-09 22:10:00,34.8,32.7,30.00,NW,320,0.0,0.0,92,0.00,OVC,,0.00,WeatherDisplay:10.37,2013-01-10 03:10:00,
2013-01-09 22:15:00,35.2,33.1,30.00,NW,320,0.0,0.0,92,0.00,OVC,,0.00,WeatherDisplay:10.37,2013-01-10 03:15:00,
2013-01-09 22:20:00,35.1,33.0,30.00,NW,320,0.0,0.0,92,0.00,OVC,,0.00,WeatherDisplay:10.37,2013-01-10 03:20:00,
2013-01-09 22:25:00,37.9,35.7,30.00,West,279,2.0,8.0,92,0.00,OVC,,0.00,WeatherDisplay:10.37,2013-01-10 03:25:00,
2013-01-09 22:30:00,39.4,37.3,30.01,NE,35,1.0,12.0,92,0.00,OVC,,0.00,WeatherDisplay:10.37,2013-01-10 03:30:00,
2013-01-09 22:35:00,37.8,35.7,30.01,ENE,64,0.0,8.0,92,0.00,OVC,,0.00,WeatherDisplay:10.37,2013-01-10 03:35:00,
2013-01-09 22:40:00,38.1,36.0,30.01,East,91,0.0,9.0,92,0.00,OVC,,0.00,WeatherDisplay:10.37,2013-01-10 03:40:00,
2013-01-09 22:45:00,39.6,37.5,30.02,WNW,284,1.0,10.0,92,0.00,OVC,,0.00,WeatherDisplay:10.37,2013-01-10 03:45:00,
2013-01-09 22:50:00,38.0,35.8,30.02,WNW,290,0.0,0.0,92,0.00,OVC,,0.00,WeatherDisplay:10.37,2013-01-10 03:50:00,
2013-01-09 22:55:00,38.3,36.2,30.02,NW,305,2.0,7.0,92,0.00,OVC,,0.00,WeatherDisplay:10.37,2013-01-10 03:55:00,
2013-01-09 23:00:00,37.9,35.8,30.02,NW,306,0.0,7.0,92,0.00,OVC,,0.00,WeatherDisplay:10.37,2013-01-10 04:00:00,
2013-01-09 23:05:00,38.9,25.8,30.02,WSW,246,0.0,9.0,59,0.00,OVC,,0.00,WeatherDisplay:10.37,2013-01-10 04:05:00,
2013-01-09 23:10:00,39.4,26.3,30.02,West,266,1.0,7.0,59,0.00,OVC,,0.00,WeatherDisplay:10.37,2013-01-10 04:10:00,
2013-01-09 23:15:00,38.3,25.2,30.02,NW,316,0.0,10.0,59,0.00,OVC,,0.00,WeatherDisplay:10.37,2013-01-10 04:15:00,
2013-01-09 23:25:00,38.4,25.4,30.03,WNW,298,1.0,9.0,59,0.00,OVC,,0.00,WeatherDisplay:10.37,2013-01-10 04:25:00,
2013-01-09 23:30:00,37.1,24.1,30.03,WNW,299,0.0,0.0,59,0.00,OVC,,0.00,WeatherDisplay:10.37,2013-01-10 04:30:00,
2013-01-09 23:35:00,37.2,24.1,30.03,West,269,0.0,9.0,59,0.00,OVC,,0.00,WeatherDisplay:10.37,2013-01-10 04:35:00,
2013-01-09 23:40:00,38.2,25.1,30.03,West,263,1.0,7.0,59,0.00,OVC,,0.00,WeatherDisplay:10.37,2013-01-10 04:40:00,
2013-01-09 23:45:00,38.6,25.5,30.04,WNW,298,1.0,8.0,59,0.00,OVC,,0.00,WeatherDisplay:10.37,2013-01-10 04:45:00,
2013-01-09 23:50:00,38.2,25.1,30.03,WSW,256,3.0,17.0,59,0.00,OVC,,0.00,WeatherDisplay:10.37,2013-01-10 04:50:00,
2013-01-09 23:55:00,39.1,26.0,30.03,WNW,299,2.0,12.0,59,0.00,OVC,,0.00,WeatherDisplay:10.37,2013-01-10 04:55:00,